createdAt,value
2018-05-10T00:01:09.311Z,99150.70
2018-05-10T00:03:36.700Z,99147.84
2018-05-10T00:06:04.079Z,99148.06
2018-05-10T00:08:31.467Z,99149.91
2018-05-10T00:10:58.857Z,99153.84
2018-05-10T00:13:26.243Z,99155.47
2018-05-10T00:15:53.626Z,99161.72
2018-05-10T00:18:21.020Z,99163.65
2018-05-10T00:20:48.404Z,99159.88
2018-05-10T00:23:15.840Z,99164.06
2018-05-10T00:25:43.227Z,99165.75
2018-05-10T00:28:10.607Z,99166.20
2018-05-10T00:30:37.991Z,99160.61
2018-05-10T00:33:05.375Z,99168.44
2018-05-10T00:35:32.767Z,99160.94
2018-05-10T00:38:00.143Z,99171.56
2018-05-10T00:40:27.535Z,99170.55
2018-05-10T00:42:54.951Z,99173.95
2018-05-10T00:45:22.344Z,99181.19
2018-05-10T00:47:49.723Z,99180.69
2018-05-10T00:50:17.107Z,99180.66
2018-05-10T00:52:44.490Z,99181.34
2018-05-10T00:55:11.875Z,99181.97
2018-05-10T00:57:39.267Z,99179.51
2018-05-10T01:00:06.651Z,99190.32
2018-05-10T01:02:34.043Z,99183.81
2018-05-10T01:05:01.444Z,99182.14
2018-05-10T01:07:28.855Z,99187.41
2018-05-10T01:09:56.243Z,99184.87
2018-05-10T01:12:23.634Z,99183.48
2018-05-10T01:14:51.010Z,99185.63
2018-05-10T01:17:18.391Z,99189.80
2018-05-10T01:19:45.775Z,99191.19
2018-05-10T01:22:13.164Z,99188.40
2018-05-10T01:24:40.551Z,99185.19
2018-05-10T01:27:07.941Z,99190.98
2018-05-10T01:29:35.332Z,99192.94
2018-05-10T01:32:02.712Z,99184.38
2018-05-10T01:34:30.107Z,99190.12
2018-05-10T01:36:57.490Z,99196.10
2018-05-10T01:39:24.879Z,99195.31
2018-05-10T01:41:52.267Z,99198.27
2018-05-10T01:44:19.670Z,99198.53
2018-05-10T01:46:47.203Z,99200.97
2018-05-10T01:49:14.587Z,99204.33
2018-05-10T01:51:41.971Z,99206.98
2018-05-10T01:54:09.350Z,99208.23
2018-05-10T01:56:36.745Z,99208.95
2018-05-10T01:59:04.122Z,99212.61
2018-05-10T02:01:31.508Z,99215.99
2018-05-10T02:03:58.944Z,99214.76
2018-05-10T02:06:26.367Z,99216.31
2018-05-10T02:08:53.727Z,99215.52
2018-05-10T02:11:21.112Z,99220.66
2018-05-10T02:13:48.507Z,99214.63
2018-05-10T02:16:15.892Z,99226.23
2018-05-10T02:18:43.288Z,99218.41
2018-05-10T02:21:10.678Z,99215.61
2018-05-10T02:23:38.058Z,99222.34
2018-05-10T02:26:05.445Z,99226.68
2018-05-10T02:28:32.832Z,99227.40
2018-05-10T02:31:00.211Z,99227.02
2018-05-10T02:33:27.611Z,99234.84
2018-05-10T02:35:54.991Z,99236.19
2018-05-10T02:38:22.374Z,99238.34
2018-05-10T02:40:49.780Z,99238.91
2018-05-10T02:43:17.160Z,99247.06
2018-05-10T02:45:44.539Z,99244.93
2018-05-10T02:48:11.923Z,99251.98
2018-05-10T02:50:39.308Z,99244.60
2018-05-10T02:53:06.700Z,99248.40
2018-05-10T02:55:34.179Z,99246.65
2018-05-10T02:58:01.567Z,99256.20
2018-05-10T03:00:28.963Z,99257.67
2018-05-10T03:02:56.352Z,99263.46
2018-05-10T03:05:23.744Z,99260.23
2018-05-10T03:07:51.132Z,99263.20
2018-05-10T03:10:18.506Z,99257.45
2018-05-10T03:12:45.895Z,99262.03
2018-05-10T03:15:13.271Z,99258.92
2018-05-10T03:17:40.655Z,99261.64
2018-05-10T03:20:08.046Z,99262.59
2018-05-10T03:22:35.439Z,99264.33
2018-05-10T03:25:02.816Z,99266.36
2018-05-10T03:27:30.294Z,99275.23
2018-05-10T03:29:57.763Z,99275.77
2018-05-10T03:32:25.075Z,99277.37
2018-05-10T03:34:52.459Z,99277.11
2018-05-10T03:37:19.847Z,99278.86
2018-05-10T03:39:47.227Z,99279.68
2018-05-10T03:42:14.615Z,99276.18
2018-05-10T03:44:42.019Z,99278.30
2018-05-10T03:47:09.408Z,99275.06
2018-05-10T03:49:36.795Z,99277.48
2018-05-10T03:52:04.186Z,99283.12
2018-05-10T03:54:31.571Z,99286.63
2018-05-10T03:56:58.951Z,99293.88
2018-05-10T03:59:26.338Z,99296.69
2018-05-10T04:01:53.727Z,99304.34
2018-05-10T04:04:32.966Z,99308.77
2018-05-10T04:07:12.158Z,99312.79
2018-05-10T04:12:44.266Z,99321.23
2018-05-10T04:15:11.663Z,99329.43
2018-05-10T04:17:39.039Z,99335.30
2018-05-10T04:20:06.428Z,99333.84
2018-05-10T04:22:33.957Z,99333.27
2018-05-10T04:25:01.343Z,99339.61
2018-05-10T04:27:28.735Z,99342.16
2018-05-10T04:29:56.123Z,99341.38
2018-05-10T04:32:23.506Z,99343.78
2018-05-10T04:34:50.904Z,99343.92
2018-05-10T04:37:18.279Z,99348.88
2018-05-10T04:39:45.659Z,99354.67
2018-05-10T04:42:14.150Z,99355.13
2018-05-10T04:44:41.490Z,99357.11
2018-05-10T04:47:08.881Z,99360.46
2018-05-10T04:49:36.259Z,99362.91
2018-05-10T04:52:03.860Z,99368.15
2018-05-10T04:54:31.254Z,99374.48
2018-05-10T04:56:58.647Z,99377.05
2018-05-10T04:59:26.032Z,99381.23
2018-05-10T05:01:53.436Z,99385.24
2018-05-10T05:04:20.823Z,99381.63
2018-05-10T05:06:48.207Z,99387.91
2018-05-10T05:09:15.599Z,99387.28
2018-05-10T05:11:42.984Z,99394.55
2018-05-10T05:14:10.384Z,99389.02
2018-05-10T05:16:37.755Z,99396.88
2018-05-10T05:19:05.159Z,99394.86
2018-05-10T05:21:32.553Z,99393.20
2018-05-10T05:23:59.979Z,99401.98
2018-05-10T05:26:27.363Z,99401.05
2018-05-10T05:28:54.771Z,99400.20
2018-05-10T05:31:22.155Z,99404.63
2018-05-10T05:33:49.551Z,99410.99
2018-05-10T05:36:16.939Z,99407.86
2018-05-10T05:38:44.335Z,99411.89
2018-05-10T05:41:11.810Z,99417.64
2018-05-10T05:43:39.111Z,99426.53
2018-05-10T05:46:06.495Z,99433.63
2018-05-10T05:48:33.882Z,99441.16
2018-05-10T05:51:01.271Z,99447.73
2018-05-10T05:53:28.661Z,99446.92
2018-05-10T05:55:56.047Z,99455.53
2018-05-10T05:58:23.430Z,99456.98
2018-05-10T06:00:50.850Z,99461.50
2018-05-10T06:03:18.230Z,99463.89
2018-05-10T06:05:45.599Z,99467.17
2018-05-10T06:08:12.992Z,99473.36
2018-05-10T06:10:40.371Z,99483.09
2018-05-10T06:13:07.763Z,99476.41
2018-05-10T06:15:35.230Z,99479.66
2018-05-10T06:18:02.537Z,99487.04
2018-05-10T06:20:29.919Z,99486.14
2018-05-10T06:22:57.307Z,99490.03
2018-05-10T06:25:24.690Z,99495.72
2018-05-10T06:27:52.081Z,99489.52
2018-05-10T06:30:19.463Z,99496.25
2018-05-10T06:32:46.850Z,99495.44
2018-05-10T06:35:14.231Z,99497.34
2018-05-10T06:37:41.651Z,99497.87
2018-05-10T06:40:09.047Z,99498.41
2018-05-10T06:42:36.422Z,99496.13
2018-05-10T06:45:03.816Z,99493.05
2018-05-10T06:47:31.200Z,99499.63
2018-05-10T06:49:58.591Z,99494.53
2018-05-10T06:52:25.976Z,99489.42
2018-05-10T06:54:53.367Z,99491.05
2018-05-10T06:57:20.903Z,99492.13
2018-05-10T06:59:48.291Z,99501.14
2018-05-10T07:02:15.674Z,99492.91
2018-05-10T07:04:43.070Z,99502.36
2018-05-10T07:07:10.558Z,99503.30
2018-05-10T07:09:37.956Z,99505.70
2018-05-10T07:12:05.366Z,99502.59
2018-05-10T07:14:32.754Z,99502.75
2018-05-10T07:17:00.147Z,99503.67
2018-05-10T07:19:27.528Z,99506.34
2018-05-10T07:21:54.919Z,99508.91
2018-05-10T07:24:22.299Z,99512.31
2018-05-10T07:26:49.715Z,99511.91
2018-05-10T07:29:17.099Z,99510.02
2018-05-10T07:31:44.687Z,99510.01
2018-05-10T07:34:12.071Z,99510.57
2018-05-10T07:36:39.477Z,99510.94
2018-05-10T07:39:06.863Z,99516.05
2018-05-10T07:41:34.261Z,99515.21
2018-05-10T07:44:01.647Z,99513.50
2018-05-10T07:46:29.032Z,99520.34
2018-05-10T07:48:56.419Z,99516.16
2018-05-10T07:51:23.805Z,99516.28
2018-05-10T07:53:58.882Z,99514.63
2018-05-10T07:56:26.639Z,99524.70
2018-05-10T07:58:54.101Z,99526.48
2018-05-10T08:01:21.421Z,99536.95
2018-05-10T08:03:48.930Z,99542.61
2018-05-10T08:06:16.315Z,99547.16
2018-05-10T08:08:43.741Z,99556.09
2018-05-10T08:11:11.119Z,99561.19
2018-05-10T08:13:38.499Z,99564.48
2018-05-10T08:16:05.887Z,99571.38
2018-05-10T08:18:33.271Z,99573.81
2018-05-10T08:21:00.663Z,99578.97
2018-05-10T08:23:28.062Z,99577.50
2018-05-10T08:25:55.443Z,99577.39
2018-05-10T08:28:22.831Z,99586.13
2018-05-10T08:30:50.219Z,99587.19
2018-05-10T08:33:17.654Z,99589.91
2018-05-10T08:35:45.039Z,99588.06
2018-05-10T08:38:12.427Z,99590.88
2018-05-10T08:40:39.835Z,99593.31
2018-05-10T08:43:07.223Z,99603.39
2018-05-10T08:45:34.610Z,99605.31
2018-05-10T08:48:02.011Z,99618.09
2018-05-10T08:50:29.437Z,99612.80
2018-05-10T08:52:56.822Z,99627.58
2018-05-10T08:55:24.258Z,99632.57
2018-05-10T08:57:51.643Z,99634.71
2018-05-10T09:00:19.038Z,99644.49
2018-05-10T09:02:46.410Z,99649.22
2018-05-10T09:05:14.480Z,99650.05
2018-05-10T09:07:42.027Z,99652.49
2018-05-10T09:10:09.421Z,99649.56
2018-05-10T09:12:36.807Z,99652.08
2018-05-10T09:15:04.194Z,99657.95
2018-05-10T09:17:31.578Z,99660.56
2018-05-10T09:19:58.958Z,99663.22
2018-05-10T09:22:26.347Z,99667.34
2018-05-10T09:24:53.797Z,99667.52
2018-05-10T09:27:21.193Z,99664.25
2018-05-10T09:29:48.611Z,99677.24
2018-05-10T09:32:16.007Z,99676.95
2018-05-10T09:34:43.392Z,99683.59
2018-05-10T09:37:10.783Z,99692.44
2018-05-10T09:39:38.168Z,99700.68
2018-05-10T09:42:05.555Z,99703.98
2018-05-10T09:44:32.938Z,99710.16
2018-05-10T09:47:00.323Z,99722.91
2018-05-10T09:49:27.707Z,99720.77
2018-05-10T09:51:55.597Z,99726.55
2018-05-10T09:54:22.979Z,99731.12
2018-05-10T09:56:50.361Z,99735.20
2018-05-10T09:59:17.749Z,99741.66
2018-05-10T10:01:45.126Z,99748.80
2018-05-10T10:04:12.515Z,99744.73
2018-05-10T10:06:39.896Z,99750.00
2018-05-10T10:09:07.279Z,99744.97
2018-05-10T10:11:34.731Z,99752.75
2018-05-10T10:14:02.048Z,99758.98
2018-05-10T10:16:29.431Z,99771.85
2018-05-10T10:18:56.811Z,99777.95
2018-05-10T10:21:24.288Z,99786.59
2018-05-10T10:23:52.138Z,99784.45
2018-05-10T10:26:19.514Z,99794.96
2018-05-10T10:28:46.911Z,99790.88
2018-05-10T10:31:14.387Z,99801.50
2018-05-10T10:33:41.769Z,99802.44
2018-05-10T10:36:09.146Z,99808.82
2018-05-10T10:38:36.521Z,99817.22
2018-05-10T10:41:03.907Z,99819.51
2018-05-10T10:43:31.388Z,99829.62
2018-05-10T10:45:58.773Z,99835.00
2018-05-10T10:48:26.147Z,99830.64
2018-05-10T10:50:53.537Z,99840.05
2018-05-10T10:53:20.915Z,99844.12
2018-05-10T10:55:48.292Z,99853.06
2018-05-10T10:58:15.675Z,99845.61
2018-05-10T11:00:43.062Z,99854.31
2018-05-10T11:03:10.446Z,99857.08
2018-05-10T11:05:37.840Z,99855.55
2018-05-10T11:08:05.226Z,99858.88
2018-05-10T11:10:32.611Z,99860.19
2018-05-10T11:12:59.995Z,99856.75
2018-05-10T11:15:27.385Z,99871.37
2018-05-10T11:17:54.780Z,99863.55
2018-05-10T11:20:22.151Z,99871.16
2018-05-10T11:22:49.530Z,99879.68
2018-05-10T11:25:16.916Z,99874.70
2018-05-10T11:27:44.300Z,99885.48
2018-05-10T11:30:11.687Z,99886.13
2018-05-10T11:32:39.077Z,99890.49
2018-05-10T11:35:06.464Z,99892.60
2018-05-10T11:37:33.840Z,99899.94
2018-05-10T11:40:01.227Z,99902.17
2018-05-10T11:42:28.631Z,99902.06
2018-05-10T11:44:56.013Z,99899.00
2018-05-10T11:47:23.393Z,99906.20
2018-05-10T11:49:50.819Z,99910.63
2018-05-10T11:52:18.207Z,99910.22
2018-05-10T11:54:45.592Z,99918.63
2018-05-10T11:57:13.053Z,99916.28
2018-05-10T11:59:40.350Z,99921.18
2018-05-10T12:02:07.803Z,99928.67
2018-05-10T12:04:35.129Z,99927.22
2018-05-10T12:07:02.518Z,99921.73
2018-05-10T12:09:29.907Z,99929.23
2018-05-10T12:11:57.290Z,99922.61
2018-05-10T12:14:24.676Z,99929.09
2018-05-10T12:16:52.063Z,99921.30
2018-05-10T12:19:19.586Z,99926.09
2018-05-10T12:21:46.883Z,99934.42
2018-05-10T12:24:14.268Z,99940.03
2018-05-10T12:26:41.647Z,99934.28
2018-05-10T12:29:09.115Z,99937.22
2018-05-10T12:31:36.639Z,99937.64
2018-05-10T12:34:04.030Z,99942.08
2018-05-10T12:36:31.415Z,99945.25
2018-05-10T12:38:58.807Z,99947.37
2018-05-10T12:41:26.187Z,99950.00
2018-05-10T12:43:53.587Z,99954.52
2018-05-10T12:46:20.980Z,99951.27
2018-05-10T12:48:48.363Z,99953.88
2018-05-10T12:51:15.746Z,99953.77
2018-05-10T12:53:43.210Z,99949.40
2018-05-10T12:56:10.750Z,99952.88
2018-05-10T12:58:38.259Z,99960.12
2018-05-10T13:01:05.649Z,99959.28
2018-05-10T13:03:33.027Z,99964.80
2018-05-10T13:06:00.461Z,99961.79
2018-05-10T13:08:27.905Z,99952.78
2018-05-10T13:10:55.224Z,99960.89
2018-05-10T13:13:22.653Z,99960.61
2018-05-10T13:15:50.004Z,99958.22
2018-05-10T13:18:17.399Z,99967.64
2018-05-10T13:20:44.787Z,99963.38
2018-05-10T13:23:12.179Z,99969.52
2018-05-10T13:25:39.567Z,99965.20
2018-05-10T13:28:06.962Z,99973.36
2018-05-10T13:30:34.335Z,99973.99
2018-05-10T13:33:01.726Z,99974.77
2018-05-10T13:35:29.107Z,99968.19
2018-05-10T13:37:56.494Z,99975.95
2018-05-10T13:40:23.883Z,99984.70
2018-05-10T13:42:51.359Z,99981.89
2018-05-10T13:45:18.764Z,99983.83
2018-05-10T13:47:46.138Z,99985.31
2018-05-10T13:50:13.540Z,99989.96
2018-05-10T13:52:40.908Z,99986.91
2018-05-10T13:55:08.313Z,99991.51
2018-05-10T13:57:35.686Z,99989.85
2018-05-10T14:00:03.095Z,99994.06
2018-05-10T14:02:30.498Z,99987.17
2018-05-10T14:04:57.931Z,99997.77
2018-05-10T14:07:25.351Z,100000.37
2018-05-10T14:09:52.811Z,100001.73
2018-05-10T14:12:20.275Z,100003.89
2018-05-10T14:14:47.677Z,100009.16
2018-05-10T14:17:15.063Z,100008.18
2018-05-10T14:19:42.471Z,100005.26
2018-05-10T14:22:09.967Z,99997.67
2018-05-10T14:24:37.244Z,100007.24
2018-05-10T14:27:04.657Z,100002.95
2018-05-10T14:29:32.051Z,100006.04
2018-05-10T14:31:59.436Z,100006.69
2018-05-10T14:34:26.835Z,100011.88
2018-05-10T14:36:54.223Z,100013.07
2018-05-10T14:39:21.666Z,100007.41
2018-05-10T14:41:49.004Z,100009.17
2018-05-10T14:44:16.397Z,100013.02
2018-05-10T14:46:43.837Z,100009.08
2018-05-10T14:49:11.170Z,100013.14
2018-05-10T14:51:38.559Z,100019.64
2018-05-10T14:54:05.954Z,100018.69
2018-05-10T14:56:33.346Z,100021.51
2018-05-10T14:59:00.731Z,100023.69
2018-05-10T15:01:28.131Z,100026.84
2018-05-10T15:03:55.521Z,100032.55
2018-05-10T15:06:22.915Z,100038.32
2018-05-10T15:08:50.300Z,100033.11
2018-05-10T15:11:17.695Z,100027.62
2018-05-10T15:13:45.091Z,100032.70
2018-05-10T15:16:12.497Z,100031.43
2018-05-10T15:18:39.887Z,100034.72
2018-05-10T15:21:07.347Z,100043.28
2018-05-10T15:23:35.177Z,100039.74
2018-05-10T15:26:02.483Z,100036.61
2018-05-10T15:28:29.874Z,100042.58
2018-05-10T15:30:57.268Z,100042.75
2018-05-10T15:33:24.668Z,100048.64
2018-05-10T15:35:52.051Z,100031.52
2018-05-10T15:38:19.447Z,100042.84
2018-05-10T15:40:46.839Z,100044.51
2018-05-10T15:43:14.236Z,100048.16
2018-05-10T15:45:41.621Z,100048.23
2018-05-10T15:48:09.317Z,100051.11
2018-05-10T15:50:36.703Z,100055.17
2018-05-10T15:53:04.096Z,100049.09
2018-05-10T15:55:31.479Z,100058.43
2018-05-10T15:57:58.874Z,100070.18
2018-05-10T16:00:26.459Z,100067.74
2018-05-10T16:02:53.851Z,100063.54
2018-05-10T16:05:21.280Z,100075.43
2018-05-10T16:07:48.672Z,100072.05
2018-05-10T16:10:16.260Z,100076.78
2018-05-10T16:12:43.643Z,100079.10
2018-05-10T16:15:11.099Z,100083.56
2018-05-10T16:17:38.463Z,100085.87
2018-05-10T16:20:05.863Z,100077.20
2018-05-10T16:22:33.251Z,100087.57
2018-05-10T16:25:00.649Z,100089.59
2018-05-10T16:27:28.036Z,100107.18
2018-05-10T16:29:55.430Z,100099.75
2018-05-10T16:32:22.820Z,100105.84
2018-05-10T16:34:50.217Z,100114.75
2018-05-10T16:37:17.594Z,100115.45
2018-05-10T16:39:45.043Z,100120.58
2018-05-10T16:42:12.433Z,100135.30
2018-05-10T16:44:39.835Z,100136.64
2018-05-10T16:47:07.266Z,100132.61
2018-05-10T16:49:34.644Z,100140.42
2018-05-10T16:52:02.041Z,100139.91
2018-05-10T16:54:29.430Z,100143.77
2018-05-10T16:56:56.827Z,100149.72
2018-05-10T16:59:24.327Z,100150.50
2018-05-10T17:01:51.714Z,100152.94
2018-05-10T17:04:19.107Z,100149.36
2018-05-10T17:06:46.547Z,100160.38
2018-05-10T17:09:13.937Z,100171.12
2018-05-10T17:11:41.391Z,100167.30
2018-05-10T17:14:09.393Z,100170.92
2018-05-10T17:16:36.937Z,100180.76
2018-05-10T17:19:04.337Z,100189.88
2018-05-10T17:21:31.711Z,100186.30
2018-05-10T17:23:59.130Z,100185.48
2018-05-10T17:26:26.515Z,100191.16
2018-05-10T17:28:53.912Z,100196.08
2018-05-10T17:31:21.304Z,100202.55
2018-05-10T17:33:48.711Z,100196.86
2018-05-10T17:36:16.111Z,100206.87
2018-05-10T17:38:43.502Z,100209.52
2018-05-10T17:41:10.895Z,100214.72
2018-05-10T17:43:38.295Z,100215.80
2018-05-10T17:46:05.683Z,100223.39
2018-05-10T17:48:33.066Z,100227.42
2018-05-10T17:51:00.878Z,100226.29
2018-05-10T17:53:28.248Z,100235.76
2018-05-10T17:55:55.639Z,100244.18
2018-05-10T17:58:23.023Z,100246.77
2018-05-10T18:00:50.424Z,100244.70
2018-05-10T18:03:17.843Z,100257.68
2018-05-10T18:05:45.240Z,100256.22
2018-05-10T18:08:12.626Z,100264.28
2018-05-10T18:10:40.096Z,100264.35
2018-05-10T18:13:07.751Z,100275.80
2018-05-10T18:15:35.080Z,100274.27
2018-05-10T18:18:02.535Z,100279.45
2018-05-10T18:20:29.923Z,100275.34
2018-05-10T18:22:57.311Z,100285.32
2018-05-10T18:25:24.699Z,100289.80
2018-05-10T18:27:52.099Z,100302.45
2018-05-10T18:30:19.505Z,100296.52
2018-05-10T18:32:46.887Z,100310.77
2018-05-10T18:35:14.270Z,100310.45
2018-05-10T18:37:41.664Z,100315.42
2018-05-10T18:40:09.059Z,100319.27
2018-05-10T18:42:36.563Z,100327.95
2018-05-10T18:45:03.955Z,100328.69
2018-05-10T18:47:31.338Z,100332.13
2018-05-10T18:49:58.734Z,100332.19
2018-05-10T18:52:26.123Z,100343.91
2018-05-10T18:54:53.596Z,100349.77
2018-05-10T18:57:20.898Z,100350.14
2018-05-10T18:59:48.563Z,100356.98
2018-05-10T19:02:15.955Z,100352.73
2018-05-10T19:04:43.479Z,100351.16
2018-05-10T19:07:10.871Z,100360.12
2018-05-10T19:09:38.260Z,100361.44
2018-05-10T19:12:05.651Z,100365.16
2018-05-10T19:14:33.182Z,100369.59
2018-05-10T19:17:00.575Z,100371.31
2018-05-10T19:19:27.974Z,100377.81
2018-05-10T19:21:55.356Z,100386.35
2018-05-10T19:24:22.748Z,100388.27
2018-05-10T19:26:50.154Z,100386.92
2018-05-10T19:29:17.539Z,100391.16
2018-05-10T19:31:44.987Z,100393.57
2018-05-10T19:34:12.331Z,100395.12
2018-05-10T19:36:39.719Z,100403.38
2018-05-10T19:39:07.107Z,100413.50
2018-05-10T19:41:34.496Z,100412.06
2018-05-10T19:44:01.910Z,100417.98
2018-05-10T19:46:29.304Z,100427.09
2018-05-10T19:48:56.690Z,100431.19
2018-05-10T19:51:24.185Z,100430.29
2018-05-10T19:53:51.524Z,100438.73
2018-05-10T19:56:18.899Z,100446.78
2018-05-10T19:58:46.283Z,100450.11
2018-05-10T20:01:13.748Z,100452.63
2018-05-10T20:03:41.055Z,100456.72
2018-05-10T20:06:08.455Z,100464.42
2018-05-10T20:08:35.846Z,100463.24
2018-05-10T20:11:03.232Z,100467.62
2018-05-10T20:13:30.611Z,100461.33
2018-05-10T20:15:58.011Z,100469.95
2018-05-10T20:18:25.395Z,100472.41
2018-05-10T20:20:52.787Z,100478.84
2018-05-10T20:23:20.186Z,100490.40
2018-05-10T20:25:47.563Z,100492.43
2018-05-10T20:28:14.960Z,100494.95
2018-05-10T20:30:42.385Z,100501.08
2018-05-10T20:33:09.779Z,100508.97
2018-05-10T20:35:37.165Z,100516.02
2018-05-10T20:38:04.566Z,100525.05
2018-05-10T20:40:31.939Z,100521.80
2018-05-10T20:42:59.418Z,100520.77
2018-05-10T20:45:26.723Z,100523.72
2018-05-10T20:47:54.111Z,100515.66
2018-05-10T20:50:21.507Z,100522.38
2018-05-10T20:52:48.899Z,100524.31
2018-05-10T20:55:16.286Z,100525.66
2018-05-10T20:57:43.682Z,100527.03
2018-05-10T21:00:11.071Z,100530.47
2018-05-10T21:02:38.451Z,100535.13
2018-05-10T21:05:05.847Z,100534.03
2018-05-10T21:07:33.243Z,100534.88
2018-05-10T21:10:00.718Z,100540.70
2018-05-10T21:12:47.863Z,100542.37
2018-05-10T21:15:15.254Z,100544.25
2018-05-10T21:17:42.638Z,100549.69
2018-05-10T21:20:10.035Z,100556.30
2018-05-10T21:22:37.423Z,100554.58
2018-05-10T21:25:04.822Z,100557.88
2018-05-10T21:27:32.200Z,100555.14
2018-05-10T21:29:59.591Z,100562.80
2018-05-10T21:32:26.981Z,100569.46
2018-05-10T21:34:54.367Z,100569.17
2018-05-10T21:37:21.755Z,100573.44
2018-05-10T21:39:49.151Z,100572.04
2018-05-10T21:42:16.541Z,100576.80
2018-05-10T21:44:43.981Z,100574.14
2018-05-10T21:47:11.364Z,100577.20
2018-05-10T21:49:50.579Z,100578.84
2018-05-10T21:52:17.972Z,100582.32
2018-05-10T21:54:45.363Z,100582.64
2018-05-10T21:57:12.743Z,100586.45
2018-05-10T21:59:40.183Z,100579.41
2018-05-10T22:02:08.159Z,100587.31
2018-05-10T22:04:35.560Z,100588.74
2018-05-10T22:07:02.951Z,100594.07
2018-05-10T22:09:30.351Z,100594.99
2018-05-10T22:11:57.735Z,100591.18
2018-05-10T22:14:25.134Z,100596.39
2018-05-10T22:16:52.519Z,100596.30
2018-05-10T22:19:19.915Z,100600.30
2018-05-10T22:21:47.299Z,100602.91
2018-05-10T22:24:14.762Z,100598.50
2018-05-10T22:26:42.210Z,100603.42
2018-05-10T22:29:09.587Z,100600.84
2018-05-10T22:31:36.979Z,100593.73
2018-05-10T22:34:04.372Z,100600.84
2018-05-10T22:36:31.763Z,100596.38
2018-05-10T22:38:59.147Z,100606.28
2018-05-10T22:41:26.543Z,100605.63
2018-05-10T22:43:53.923Z,100610.48
2018-05-10T22:46:21.315Z,100613.06
2018-05-10T22:48:48.699Z,100613.77
2018-05-10T22:51:16.086Z,100613.65
2018-05-10T22:53:43.483Z,100611.88
2018-05-10T22:56:10.867Z,100615.39
2018-05-10T22:58:38.264Z,100616.45
2018-05-10T23:01:05.659Z,100617.77
2018-05-10T23:03:33.058Z,100619.78
2018-05-10T23:06:00.447Z,100626.89
2018-05-10T23:08:27.891Z,100626.22
2018-05-10T23:10:55.278Z,100619.09
2018-05-10T23:13:22.675Z,100626.44
2018-05-10T23:15:50.071Z,100632.18
2018-05-10T23:18:17.471Z,100633.58
2018-05-10T23:20:44.863Z,100631.50
2018-05-10T23:23:12.256Z,100634.38
2018-05-10T23:25:39.647Z,100637.53
2018-05-10T23:28:07.037Z,100629.70
2018-05-10T23:30:34.430Z,100630.94
2018-05-10T23:33:01.819Z,100637.52
2018-05-10T23:35:29.213Z,100631.35
2018-05-10T23:37:56.599Z,100633.55
2018-05-10T23:40:23.991Z,100639.29
2018-05-10T23:42:51.382Z,100637.89
2018-05-10T23:45:18.779Z,100639.12
2018-05-10T23:47:46.169Z,100638.93
2018-05-10T23:50:13.556Z,100639.12
2018-05-10T23:52:40.951Z,100638.73
2018-05-10T23:55:08.339Z,100638.45
2018-05-10T23:57:35.731Z,100639.19
